Time;durP1;ratioP1;P1;durP2;ratioP2;P2;SDS_P1;SDS_P2;PMS_P1;PMS_P2;Temp;Humidity;BMP_temperature;BMP_pressure;BME280_temperature;BME280_humidity;BME280_pressure;Samples;Min_cycle;Max_cycle;Signal;HPM_P1;HPM_P2
2023/08/15 00:02:07;;;;;;;12.90;7.90;;;;;;;21.48;100.00;100266.09;5057629;28;20043;-85
2023/08/15 00:04:35;;;;;;;12.20;7.63;;;;;;;21.39;100.00;100267.91;5060528;28;20051;-85
2023/08/15 00:07:04;;;;;;;13.23;7.97;;;;;;;21.37;100.00;100270.97;5059182;28;20056;-85
2023/08/15 00:09:33;;;;;;;14.95;8.02;;;;;;;21.45;100.00;100277.78;5062868;28;20032;-85
2023/08/15 00:11:59;;;;;;;14.35;8.40;;;;;;;21.36;100.00;100280.41;5059333;28;20692;-84
2023/08/15 00:14:25;;;;;;;12.65;8.23;;;;;;;21.28;100.00;100258.91;5056908;28;20036;-84
2023/08/15 00:16:52;;;;;;;10.90;7.53;;;;;;;21.37;100.00;100257.09;5054419;28;20059;-85
2023/08/15 00:19:18;;;;;;;11.50;7.70;;;;;;;21.34;100.00;100273.50;5052233;28;20481;-85
2023/08/15 00:21:44;;;;;;;12.27;8.38;;;;;;;21.33;100.00;100261.59;5053732;28;20040;-85
2023/08/15 00:24:10;;;;;;;14.65;8.55;;;;;;;21.32;100.00;100248.84;5059588;28;20040;-84
2023/08/15 00:26:37;;;;;;;14.10;8.10;;;;;;;21.20;100.00;100235.41;5047744;28;20128;-84
2023/08/15 00:29:04;;;;;;;13.23;8.50;;;;;;;21.26;100.00;100227.88;5064395;28;20056;-84
2023/08/15 00:31:31;;;;;;;10.73;7.87;;;;;;;21.36;100.00;100235.22;5067363;28;20135;-85
2023/08/15 00:33:59;;;;;;;;;;;;;;;21.41;100.00;100244.25;5070552;28;20045;-84
2023/08/15 00:36:27;;;;;;;11.48;7.90;;;;;;;21.46;100.00;100273.06;5072637;28;19976;-84
2023/08/15 00:38:53;;;;;;;12.27;8.27;;;;;;;21.36;100.00;100277.63;5058668;28;20152;-83
2023/08/15 00:41:20;;;;;;;10.15;8.00;;;;;;;21.34;100.00;100285.44;5065544;28;20095;-84
2023/08/15 00:43:46;;;;;;;9.30;7.97;;;;;;;21.18;100.00;100286.75;5075700;28;20429;-84
2023/08/15 00:46:13;;;;;;;13.27;8.35;;;;;;;21.10;100.00;100277.97;5058876;28;20036;-84
2023/08/15 00:48:41;;;;;;;12.48;7.90;;;;;;;21.18;100.00;100276.50;5070237;28;20044;-85
2023/08/15 00:51:07;;;;;;;;;;;;;;;21.15;100.00;100276.25;5059391;28;20040;-85
2023/08/15 00:53:35;;;;;;;11.95;8.50;;;;;;;21.11;100.00;100279.63;5066621;28;19927;-85
2023/08/15 00:56:02;;;;;;;10.77;8.23;;;;;;;21.06;100.00;100279.69;5067958;28;20048;-83
2023/08/15 00:58:30;;;;;;;13.35;8.88;;;;;;;21.03;100.00;100288.63;5064520;28;20041;-84
2023/08/15 01:00:56;;;;;;;13.07;8.38;;;;;;;20.96;100.00;100269.56;5050943;28;20033;-83
2023/08/15 01:03:22;;;;;;;13.38;8.60;;;;;;;20.91;100.00;100269.63;5071989;28;20112;-84
2023/08/15 01:05:49;;;;;;;13.88;9.15;;;;;;;20.75;100.00;100254.25;5081824;28;20121;-84
2023/08/15 01:08:16;;;;;;;14.27;9.17;;;;;;;20.86;100.00;100250.28;5059542;28;20040;-84
2023/08/15 01:10:43;;;;;;;13.70;9.18;;;;;;;20.86;100.00;100253.06;5070340;28;20288;-84
2023/08/15 01:13:20;;;;;;;12.43;8.55;;;;;;;20.82;100.00;100238.97;5083967;28;20055;-85
2023/08/15 01:15:53;;;;;;;13.60;8.75;;;;;;;20.76;100.00;100222.66;5082259;28;20103;-85
2023/08/15 01:18:31;;;;;;;13.02;8.75;;;;;;;20.74;100.00;100199.94;5087909;28;20044;-85
2023/08/15 01:20:58;;;;;;;;;;;;;;;20.76;100.00;100194.94;5090430;28;20100;-84
2023/08/15 01:23:37;;;;;;;10.48;8.23;;;;;;;20.76;100.00;100204.09;5077422;28;19916;-83
2023/08/15 01:26:03;;;;;;;12.60;8.35;;;;;;;20.78;100.00;100218.47;5077612;28;20021;-83
2023/08/15 01:28:31;;;;;;;11.20;8.32;;;;;;;20.70;100.00;100228.25;5071206;28;20032;-83
2023/08/15 01:31:01;;;;;;;13.52;9.52;;;;;;;20.69;100.00;100228.56;5090907;28;20048;-83
2023/08/15 01:33:36;;;;;;;12.15;8.93;;;;;;;20.63;100.00;100226.97;5097059;28;20029;-84
2023/08/15 01:36:08;;;;;;;16.58;9.45;;;;;;;20.59;100.00;100225.91;5078540;28;20036;-83
2023/08/15 01:39:06;;;;;;;14.07;8.82;;;;;;;20.60;100.00;100233.94;5060222;28;20025;-83
2023/08/15 01:41:36;;;;;;;14.45;8.88;;;;;;;20.50;100.00;100240.41;5061553;28;20060;-84
2023/08/15 01:44:03;;;;;;;15.85;9.23;;;;;;;20.35;100.00;100232.25;5069039;28;20025;-84
2023/08/15 01:46:30;;;;;;;14.60;8.80;;;;;;;20.20;100.00;100202.78;5069910;28;20033;-84
2023/08/15 01:48:57;;;;;;;10.40;9.13;;;;;;;20.13;100.00;100197.56;5072414;28;20037;-83
2023/08/15 01:51:24;;;;;;;13.55;8.65;;;;;;;20.26;100.00;100207.97;5086758;28;20068;-84
2023/08/15 01:53:51;;;;;;;13.38;9.40;;;;;;;20.22;100.00;100212.44;5048053;28;20040;-84
2023/08/15 01:56:18;;;;;;;12.73;9.27;;;;;;;20.14;100.00;100220.56;5066747;28;20035;-85
2023/08/15 01:58:45;;;;;;;13.15;9.50;;;;;;;20.09;100.00;100213.13;5061978;28;20033;-85
2023/08/15 02:01:14;;;;;;;14.70;10.82;;;;;;;20.02;100.00;100209.88;5042601;28;20064;-84
2023/08/15 02:03:41;;;;;;;13.38;9.73;;;;;;;20.08;100.00;100204.00;5048340;28;20063;-86
2023/08/15 02:06:09;;;;;;;13.43;9.88;;;;;;;20.02;100.00;100194.06;5060545;28;20057;-85
2023/08/15 02:08:36;;;;;;;15.45;9.15;;;;;;;19.82;100.00;100192.28;5043964;28;20357;-85
2023/08/15 02:11:02;;;;;;;12.52;10.15;;;;;;;19.94;100.00;100183.63;5041965;28;20052;-85
2023/08/15 02:13:32;;;;;;;14.68;10.35;;;;;;;19.97;100.00;100172.81;5045933;28;20583;-85
2023/08/15 02:15:58;;;;;;;16.73;11.15;;;;;;;19.98;100.00;100152.31;5063750;28;20456;-86
2023/08/15 02:18:29;;;;;;;15.25;11.38;;;;;;;20.00;100.00;100153.97;5046704;28;20132;-86
2023/08/15 02:20:55;;;;;;;15.38;11.35;;;;;;;19.99;100.00;100164.22;5062045;28;20032;-85
2023/08/15 02:23:22;;;;;;;14.35;11.98;;;;;;;19.88;100.00;100163.44;5061129;28;20166;-85
2023/08/15 02:25:49;;;;;;;16.08;11.10;;;;;;;19.95;100.00;100165.91;5062540;28;20057;-85
2023/08/15 02:28:17;;;;;;;14.45;10.68;;;;;;;19.93;100.00;100166.22;5051524;28;20041;-85
2023/08/15 02:30:45;;;;;;;14.73;11.27;;;;;;;19.93;100.00;100163.44;5054482;28;20045;-84
2023/08/15 02:33:11;;;;;;;14.65;10.20;;;;;;;19.74;100.00;100165.25;5066257;28;20461;-85
2023/08/15 02:35:41;;;;;;;18.58;10.90;;;;;;;19.72;100.00;100159.19;5058737;28;20033;-85
2023/08/15 02:38:08;;;;;;;15.18;11.25;;;;;;;19.81;100.00;100151.91;5053421;28;20139;-85
2023/08/15 02:40:34;;;;;;;17.70;12.18;;;;;;;19.74;100.00;100157.75;5071351;28;20518;-84
2023/08/15 02:43:00;;;;;;;17.00;11.52;;;;;;;19.76;100.00;100161.09;5054288;28;20093;-85
2023/08/15 02:45:26;;;;;;;18.35;11.98;;;;;;;19.81;100.00;100152.75;5053582;28;20623;-85
2023/08/15 02:47:53;;;;;;;18.73;11.90;;;;;;;19.81;100.00;100149.13;5045638;28;20560;-85
2023/08/15 02:50:19;;;;;;;16.95;11.57;;;;;;;19.87;100.00;100149.91;5052010;28;20539;-85
2023/08/15 02:52:45;;;;;;;14.77;11.95;;;;;;;19.80;100.00;100153.84;5075596;28;20040;-85
2023/08/15 02:55:11;;;;;;;15.88;11.52;;;;;;;19.72;100.00;100160.00;5070227;28;20024;-84
2023/08/15 02:57:38;;;;;;;16.05;11.00;;;;;;;19.76;100.00;100149.19;5075692;28;20563;-85
2023/08/15 03:00:07;;;;;;;16.55;11.30;;;;;;;19.84;100.00;100166.00;5059864;28;20033;-85
2023/08/15 03:02:34;;;;;;;19.05;12.18;;;;;;;19.82;100.00;100171.00;5059561;28;20052;-85
2023/08/15 03:05:00;;;;;;;17.48;12.13;;;;;;;19.78;100.00;100172.69;5043982;28;20492;-85
2023/08/15 03:07:26;;;;;;;15.98;12.50;;;;;;;19.79;100.00;100176.28;5053182;28;20036;-85
2023/08/15 03:09:52;;;;;;;18.63;12.13;;;;;;;19.82;100.00;100164.63;5047171;28;20148;-85
2023/08/15 03:12:18;;;;;;;16.92;12.30;;;;;;;19.79;100.00;100179.03;5069091;28;20056;-84
2023/08/15 03:14:45;;;;;;;21.70;12.30;;;;;;;19.75;100.00;100176.00;5046150;28;20365;-85
2023/08/15 03:17:13;;;;;;;19.73;12.95;;;;;;;19.58;100.00;100173.69;5056986;28;20028;-84
2023/08/15 03:19:40;;;;;;;17.02;11.68;;;;;;;19.57;100.00;100163.72;5045417;28;20500;-84
2023/08/15 03:22:09;;;;;;;18.95;13.60;;;;;;;19.50;100.00;100152.19;5052150;28;20029;-85
2023/08/15 03:24:36;;;;;;;18.30;13.88;;;;;;;19.44;100.00;100143.09;5051497;28;20032;-85
2023/08/15 03:27:06;;;;;;;19.40;13.30;;;;;;;19.48;100.00;100146.91;5049792;28;20118;-85
2023/08/15 03:29:32;;;;;;;18.77;13.35;;;;;;;19.45;100.00;100149.47;5060003;28;20040;-86
2023/08/15 03:31:58;;;;;;;20.15;13.30;;;;;;;19.46;100.00;100142.81;5049293;28;20025;-86
2023/08/15 03:34:28;;;;;;;18.63;12.50;;;;;;;19.49;100.00;100140.28;5048537;28;20037;-86
2023/08/15 03:36:57;;;;;;;15.03;11.90;;;;;;;19.57;100.00;100141.59;5045069;28;20043;-86
2023/08/15 03:39:25;;;;;;;16.92;12.18;;;;;;;19.49;100.00;100145.81;5067922;28;20036;-86
2023/08/15 03:41:51;;;;;;;17.77;12.05;;;;;;;19.53;100.00;100135.00;5070165;28;20507;-85
2023/08/15 03:44:17;;;;;;;18.23;11.95;;;;;;;19.49;100.00;100122.88;5046529;28;20037;-85
2023/08/15 03:46:45;;;;;;;16.63;12.00;;;;;;;19.48;100.00;100107.38;5050732;28;20514;-85
2023/08/15 03:49:11;;;;;;;16.70;11.93;;;;;;;19.57;100.00;100093.75;5050983;28;20059;-85
2023/08/15 03:51:37;;;;;;;15.60;11.52;;;;;;;19.67;100.00;100091.72;5069310;28;20501;-85
2023/08/15 03:54:04;;;;;;;18.17;11.77;;;;;;;19.70;100.00;100090.28;5048477;28;20033;-85
2023/08/15 03:56:30;;;;;;;18.48;11.93;;;;;;;19.69;100.00;100111.63;5059061;28;20029;-85
2023/08/15 03:58:57;;;;;;;18.05;12.35;;;;;;;19.57;100.00;100102.88;5070772;28;20056;-85
2023/08/15 04:01:28;;;;;;;16.20;12.07;;;;;;;19.62;100.00;100121.38;5067275;28;20047;-85
2023/08/15 04:03:58;;;;;;;14.75;11.13;;;;;;;19.47;100.00;100131.44;5051141;28;20127;-85
2023/08/15 04:06:24;;;;;;;14.75;10.75;;;;;;;19.46;100.00;100128.97;5070382;28;20055;-86
2023/08/15 04:08:50;;;;;;;15.43;11.55;;;;;;;19.46;100.00;100135.31;5052583;28;20033;-86
2023/08/15 04:11:17;;;;;;;17.38;12.45;;;;;;;19.43;100.00;100135.09;5039985;28;20066;-84
2023/08/15 04:13:43;;;;;;;17.48;13.32;;;;;;;19.44;100.00;100125.69;5031294;28;20049;-85
2023/08/15 04:16:10;;;;;;;21.00;14.02;;;;;;;19.37;100.00;100120.47;5067332;28;20037;-85
2023/08/15 04:18:36;;;;;;;21.80;15.45;;;;;;;19.40;100.00;100122.66;5066332;28;20086;-85
2023/08/15 04:21:02;;;;;;;23.30;16.80;;;;;;;19.33;100.00;100125.75;5063840;28;20126;-86
2023/08/15 04:23:28;;;;;;;21.30;16.88;;;;;;;19.29;100.00;100123.88;5050361;28;20477;-83
2023/08/15 04:25:54;;;;;;;22.10;18.60;;;;;;;19.33;100.00;100122.97;5035296;28;20076;-80
2023/08/15 04:28:21;;;;;;;22.92;17.60;;;;;;;19.44;100.00;100117.38;5046027;28;20032;-81
2023/08/15 04:30:47;;;;;;;18.10;14.80;;;;;;;19.49;100.00;100120.91;5068069;28;20041;-82
2023/08/15 04:33:14;;;;;;;18.38;14.07;;;;;;;19.58;100.00;100126.66;5065199;28;20123;-83
2023/08/15 04:35:40;;;;;;;18.85;13.80;;;;;;;19.63;100.00;100136.84;5050329;28;20048;-83
2023/08/15 04:38:07;;;;;;;17.88;12.98;;;;;;;19.66;100.00;100137.09;5046372;28;20032;-83
2023/08/15 04:40:40;;;;;;;17.90;13.43;;;;;;;19.75;100.00;100142.81;5049857;28;20128;-84
2023/08/15 04:43:07;;;;;;;17.20;12.23;;;;;;;19.88;100.00;100151.56;5057316;28;20107;-85
2023/08/15 04:45:40;;;;;;;15.57;12.35;;;;;;;19.98;100.00;100168.09;5047281;28;20044;-85
2023/08/15 04:48:07;;;;;;;19.70;13.60;;;;;;;20.04;100.00;100168.88;5033729;28;20036;-83
2023/08/15 04:50:35;;;;;;;16.38;12.10;;;;;;;20.17;100.00;100179.28;5057118;28;20046;-82
2023/08/15 04:53:03;;;;;;;16.10;12.60;;;;;;;20.29;100.00;100200.19;5049469;28;20675;-83
2023/08/15 04:55:30;;;;;;;17.05;11.65;;;;;;;20.33;100.00;100204.88;5059475;28;20043;-84
2023/08/15 04:57:56;;;;;;;16.15;11.27;;;;;;;20.42;100.00;100216.09;5052447;28;20407;-88
2023/08/15 05:00:22;;;;;;;15.95;10.55;;;;;;;20.48;100.00;100241.81;5044646;28;20079;-86
2023/08/15 05:02:48;;;;;;;14.38;11.00;;;;;;;20.61;100.00;100265.22;5048020;28;20045;-82
2023/08/15 05:05:16;;;;;;;16.25;10.70;;;;;;;20.73;100.00;100285.06;5043790;28;20040;-83
2023/08/15 05:07:43;;;;;;;13.00;9.90;;;;;;;20.78;100.00;100295.25;5039691;28;20040;-81
2023/08/15 05:10:09;;;;;;;13.93;10.15;;;;;;;21.00;100.00;100314.16;5047374;28;20037;-82
2023/08/15 05:12:37;;;;;;;12.25;9.63;;;;;;;21.19;100.00;100321.69;5043828;28;20045;-81
2023/08/15 05:15:07;;;;;;;20.27;9.15;;;;;;;21.26;100.00;100338.81;5066354;28;20111;-81
2023/08/15 05:17:34;;;;;;;13.95;9.35;;;;;;;21.53;100.00;100340.13;5058304;28;20025;-81
2023/08/15 05:20:03;;;;;;;14.68;8.25;;;;;;;21.67;100.00;100368.00;5050501;28;20048;-83
2023/08/15 05:22:33;;;;;;;9.52;7.60;;;;;;;21.97;100.00;100379.78;5054449;28;20060;-84
2023/08/15 05:25:00;;;;;;;8.55;6.82;;;;;;;22.17;100.00;100406.41;5051496;28;20044;-81
2023/08/15 05:27:27;;;;;;;12.07;7.53;;;;;;;22.48;100.00;100403.19;5058908;28;20396;-80
2023/08/15 05:29:53;;;;;;;7.88;6.03;;;;;;;22.67;100.00;100427.34;5050784;28;20037;-81
2023/08/15 05:32:19;;;;;;;9.23;6.05;;;;;;;22.75;100.00;100464.75;5051920;28;20058;-82
2023/08/15 05:34:45;;;;;;;8.20;5.10;;;;;;;22.83;100.00;100475.16;5068534;28;20036;-81
2023/08/15 05:37:11;;;;;;;7.45;5.05;;;;;;;22.89;100.00;100473.13;5057519;28;20029;-81
2023/08/15 05:39:38;;;;;;;9.95;4.90;;;;;;;22.96;100.00;100470.78;5043619;28;20143;-81
2023/08/15 05:42:04;;;;;;;8.15;4.32;;;;;;;22.91;100.00;100462.53;5069023;28;20068;-81
2023/08/15 05:44:31;;;;;;;7.32;4.80;;;;;;;22.93;100.00;100482.50;5065975;28;20040;-84
2023/08/15 05:46:57;;;;;;;8.10;4.75;;;;;;;22.75;100.00;100495.31;5066576;28;20033;-82
2023/08/15 05:49:23;;;;;;;9.00;4.43;;;;;;;22.70;100.00;100499.00;5067218;28;20440;-83
2023/08/15 05:51:49;;;;;;;11.02;4.40;;;;;;;22.37;100.00;100498.94;5063718;28;20072;-82
2023/08/15 05:54:15;;;;;;;7.32;4.85;;;;;;;22.27;100.00;100503.50;5072704;28;20033;-82
2023/08/15 05:56:41;;;;;;;7.65;4.38;;;;;;;22.35;100.00;100502.00;5072412;28;20070;-83
2023/08/15 05:59:07;;;;;;;6.05;4.82;;;;;;;22.60;100.00;100497.22;5072689;28;20036;-85
2023/08/15 06:01:33;;;;;;;8.30;4.90;;;;;;;22.60;100.00;100501.97;5072838;28;20094;-86
2023/08/15 06:04:00;;;;;;;7.53;4.93;;;;;;;22.45;100.00;100494.66;5073105;28;20484;-83
2023/08/15 06:06:26;;;;;;;8.93;5.23;;;;;;;22.40;100.00;100492.75;5072608;28;20045;-79
2023/08/15 06:08:53;;;;;;;7.95;4.90;;;;;;;22.34;100.00;100486.44;5072287;28;20296;-80
2023/08/15 06:11:19;;;;;;;7.70;4.85;;;;;;;22.27;100.00;100488.78;5067531;28;20523;-85
2023/08/15 06:13:45;;;;;;;7.43;4.70;;;;;;;22.23;100.00;100480.22;5070554;28;20053;-83
2023/08/15 06:16:11;;;;;;;6.72;4.40;;;;;;;22.32;100.00;100490.69;5062014;28;20024;-84
2023/08/15 06:18:37;;;;;;;7.82;4.75;;;;;;;22.29;100.00;100488.50;5049556;28;20028;-84
2023/08/15 06:21:03;;;;;;;9.25;4.90;;;;;;;22.27;100.00;100481.25;5066316;28;20060;-86
2023/08/15 06:23:29;;;;;;;8.73;5.00;;;;;;;22.12;100.00;100465.66;5064015;28;20045;-88
2023/08/15 06:25:56;;;;;;;8.57;5.13;;;;;;;22.10;100.00;100453.19;5069154;28;20074;-87
2023/08/15 06:28:22;;;;;;;10.63;5.50;;;;;;;22.07;100.00;100443.50;5068564;28;20040;-85
2023/08/15 06:30:49;;;;;;;8.82;5.38;;;;;;;21.94;100.00;100420.06;5069478;28;20312;-85
2023/08/15 06:33:15;;;;;;;10.70;5.95;;;;;;;21.87;100.00;100385.47;5066727;28;20029;-89
2023/08/15 06:35:41;;;;;;;9.88;5.82;;;;;;;21.84;100.00;100403.56;5049528;28;20557;-86
2023/08/15 06:38:07;;;;;;;8.35;6.13;;;;;;;21.74;100.00;100398.97;5068037;28;20120;-88
2023/08/15 06:40:33;;;;;;;10.07;6.55;;;;;;;21.67;100.00;100388.25;5064612;28;20036;-88
2023/08/15 06:42:59;;;;;;;12.65;6.38;;;;;;;21.60;100.00;100404.41;5057665;28;20028;-87
2023/08/15 06:45:26;;;;;;;11.43;6.50;;;;;;;21.52;100.00;100399.53;5058625;28;20040;-85
2023/08/15 06:47:52;;;;;;;12.13;6.63;;;;;;;21.42;100.00;100381.06;5072073;28;20416;-85
2023/08/15 06:50:18;;;;;;;11.25;7.05;;;;;;;21.31;100.00;100363.72;5066666;28;20044;-84
2023/08/15 06:52:44;;;;;;;14.60;7.10;;;;;;;21.31;100.00;100347.06;5071124;28;20367;-85
2023/08/15 06:55:11;;;;;;;10.70;7.60;;;;;;;21.22;100.00;100333.03;5070316;28;20028;-83
2023/08/15 06:57:37;;;;;;;13.98;8.40;;;;;;;21.17;100.00;100335.03;5067949;28;20476;-81
2023/08/15 07:00:06;;;;;;;16.50;8.15;;;;;;;21.18;100.00;100322.81;5069665;28;20378;-82
2023/08/15 07:02:32;;;;;;;11.30;7.50;;;;;;;21.19;100.00;100335.56;5067970;28;20033;-82
2023/08/15 07:04:58;;;;;;;12.27;7.93;;;;;;;21.15;100.00;100331.72;5063846;28;20056;-84
2023/08/15 07:07:25;;;;;;;11.43;7.88;;;;;;;21.05;100.00;100330.72;5066032;28;20041;-86
2023/08/15 07:09:51;;;;;;;13.00;8.13;;;;;;;20.95;100.00;100292.03;5071058;28;20036;-83
2023/08/15 07:12:18;;;;;;;14.23;8.60;;;;;;;20.83;100.00;100226.75;5060785;28;20079;-83
2023/08/15 07:14:45;;;;;;;13.95;9.55;;;;;;;21.00;100.00;100189.41;5059543;28;20051;-86
2023/08/15 07:17:12;;;;;;;13.35;9.55;;;;;;;21.12;100.00;100175.91;5063430;28;20060;-83
2023/08/15 07:19:38;;;;;;;14.48;9.85;;;;;;;21.29;100.00;100149.59;5062635;28;20390;-82
2023/08/15 07:22:04;;;;;;;19.08;11.27;;;;;;;21.67;100.00;100138.44;5069538;28;20032;-83
2023/08/15 07:24:30;;;;;;;13.40;11.05;;;;;;;21.78;100.00;100154.94;5063811;28;20117;-85
2023/08/15 07:26:57;;;;;;;14.32;11.57;;;;;;;22.06;100.00;100149.44;5058306;28;21871;-84
2023/08/15 07:29:23;;;;;;;13.68;11.07;;;;;;;22.26;100.00;100160.13;5065120;28;20036;-84
2023/08/15 07:31:52;;;;;;;14.02;10.05;;;;;;;22.26;100.00;100184.31;5076738;28;20116;-85
2023/08/15 07:34:18;;;;;;;13.88;10.35;;;;;;;22.22;100.00;100224.97;5069368;28;20041;-85
2023/08/15 07:36:44;;;;;;;14.82;9.43;;;;;;;22.35;100.00;100246.38;5053908;28;20037;-85
2023/08/15 07:39:10;;;;;;;12.15;8.93;;;;;;;22.11;100.00;100277.91;5071602;28;20037;-86
2023/08/15 07:41:36;;;;;;;11.25;8.27;;;;;;;22.01;100.00;100264.19;5070122;28;20044;-85
2023/08/15 07:44:03;;;;;;;11.00;8.60;;;;;;;22.07;100.00;100262.97;5065080;28;20037;-85
2023/08/15 07:46:29;;;;;;;10.02;8.07;;;;;;;22.19;100.00;100258.91;5067508;28;20032;-84
2023/08/15 07:48:55;;;;;;;10.18;7.47;;;;;;;22.27;100.00;100284.00;5054726;28;20104;-88
2023/08/15 07:51:22;;;;;;;11.23;7.15;;;;;;;22.49;100.00;100304.78;5056769;28;20040;-86
2023/08/15 07:53:48;;;;;;;10.95;6.97;;;;;;;22.63;100.00;100331.78;5072173;28;20029;-86
2023/08/15 07:56:14;;;;;;;9.05;6.50;;;;;;;22.64;100.00;100358.44;5062385;28;20033;-85
2023/08/15 07:58:40;;;;;;;10.80;6.25;;;;;;;22.69;100.00;100391.72;5062032;28;20055;-85
2023/08/15 08:01:06;;;;;;;10.32;5.45;;;;;;;22.74;100.00;100413.84;5050477;28;20040;-85
2023/08/15 08:03:32;;;;;;;7.78;5.40;;;;;;;22.82;100.00;100423.47;5061063;28;20400;-88
2023/08/15 08:06:00;;;;;;;7.07;4.30;;;;;;;22.71;100.00;100458.94;5063103;28;20028;-85
2023/08/15 08:08:26;;;;;;;7.60;4.55;;;;;;;22.80;100.00;100450.75;5070397;28;20050;-83
2023/08/15 08:10:52;;;;;;;6.70;4.18;;;;;;;22.88;100.00;100460.34;5069114;28;20074;-85
2023/08/15 08:13:19;;;;;;;5.00;3.78;;;;;;;22.93;100.00;100469.41;5046785;28;20506;-83
2023/08/15 08:15:45;;;;;;;5.68;3.38;;;;;;;23.19;100.00;100495.97;5059271;28;20119;-84
2023/08/15 08:18:11;;;;;;;6.18;3.75;;;;;;;23.11;100.00;100498.31;5067349;28;20028;-85
2023/08/15 08:20:37;;;;;;;6.55;3.28;;;;;;;23.20;100.00;100498.41;5065813;28;20044;-83
2023/08/15 08:23:04;;;;;;;7.63;3.10;;;;;;;23.54;100.00;100518.72;5068719;28;20028;-83
2023/08/15 08:25:30;;;;;;;4.57;2.50;;;;;;;23.52;100.00;100537.69;5066134;28;20123;-81
2023/08/15 08:27:56;;;;;;;3.75;2.10;;;;;;;23.87;100.00;100577.13;5064027;28;20071;-81
2023/08/15 08:30:23;;;;;;;4.85;2.40;;;;;;;24.01;100.00;100591.09;5060699;28;20049;-81
2023/08/15 08:32:50;;;;;;;4.63;2.07;;;;;;;24.35;100.00;100614.06;5059452;28;20069;-83
2023/08/15 08:35:17;;;;;;;4.70;2.15;;;;;;;24.23;100.00;100637.72;5066565;28;20131;-87
2023/08/15 08:37:44;;;;;;;3.38;1.90;;;;;;;24.21;100.00;100633.59;5057185;28;20074;-83
2023/08/15 08:40:14;;;;;;;3.80;2.03;;;;;;;23.94;100.00;100610.13;5060039;28;20041;-83
2023/08/15 08:42:40;;;;;;;4.60;2.08;;;;;;;24.05;100.00;100600.47;5052767;28;20059;-85
2023/08/15 08:45:09;;;;;;;4.97;2.28;;;;;;;24.10;100.00;100600.38;5053721;28;20055;-82
2023/08/15 08:47:39;;;;;;;4.28;1.70;;;;;;;23.85;100.00;100613.63;5048910;28;20036;-80
2023/08/15 08:50:09;;;;;;;3.63;1.90;;;;;;;24.05;100.00;100649.78;5050400;28;20036;-85
2023/08/15 08:52:45;;;;;;;3.35;2.00;;;;;;;24.60;100.00;100645.31;5074557;28;20041;-84
2023/08/15 08:55:11;;;;;;;3.35;1.70;;;;;;;24.71;100.00;100680.22;5048027;28;20033;-83
2023/08/15 08:57:39;;;;;;;2.95;1.70;;;;;;;24.93;100.00;100698.19;5052062;28;20033;-84
2023/08/15 09:00:07;;;;;;;3.30;1.70;;;;;;;24.91;100.00;100704.09;5054316;28;20044;-85
2023/08/15 09:02:35;;;;;;;2.47;1.48;;;;;;;24.87;100.00;100691.06;5058892;28;20480;-83
2023/08/15 09:05:07;;;;;;;2.53;1.45;;;;;;;24.94;100.00;100697.06;5045101;28;20067;-81
2023/08/15 09:07:34;;;;;;;3.58;1.60;;;;;;;25.12;100.00;100690.47;5065323;28;20628;-81
2023/08/15 09:10:01;;;;;;;2.95;1.63;;;;;;;25.00;100.00;100695.81;5061735;28;20135;-84
2023/08/15 09:12:37;;;;;;;3.22;1.60;;;;;;;25.09;100.00;100693.91;5043628;28;20051;-84
2023/08/15 09:15:08;;;;;;;3.85;1.30;;;;;;;25.11;100.00;100697.22;5042897;28;20040;-84
2023/08/15 09:17:34;;;;;;;2.45;1.27;;;;;;;25.53;100.00;100710.22;5047405;28;20045;-83
2023/08/15 09:20:12;;;;;;;2.40;1.40;;;;;;;25.79;100.00;100717.97;5064375;28;20032;-81
2023/08/15 09:22:44;;;;;;;2.10;1.30;;;;;;;25.88;100.00;100706.84;5064746;28;20024;-82
2023/08/15 09:25:12;;;;;;;1.73;1.20;;;;;;;25.94;100.00;100723.13;5050772;28;20472;-82
2023/08/15 09:27:39;;;;;;;2.75;1.35;;;;;;;25.91;100.00;100718.19;5034811;28;20506;-82
2023/08/15 09:30:13;;;;;;;1.95;1.30;;;;;;;26.18;100.00;100710.00;5068275;28;20071;-83
2023/08/15 09:32:41;;;;;;;2.13;1.20;;;;;;;26.08;100.00;100717.47;5056361;28;20107;-82
2023/08/15 09:35:10;;;;;;;2.35;1.25;;;;;;;26.55;100.00;100722.63;5067812;28;20438;-82
2023/08/15 09:37:47;;;;;;;2.05;1.00;;;;;;;26.78;100.00;100727.31;5062308;28;20149;-82
2023/08/15 09:40:22;;;;;;;1.85;1.33;;;;;;;27.71;100.00;100722.47;5062256;28;20559;-83
2023/08/15 09:42:49;;;;;;;2.90;1.10;;;;;;;27.42;100.00;100740.75;5058033;28;20123;-85
2023/08/15 09:45:16;;;;;;;3.25;1.30;;;;;;;27.85;100.00;100732.66;5034000;28;20516;-84
2023/08/15 09:47:44;;;;;;;3.65;1.35;;;;;;;28.28;100.00;100737.34;5050106;28;20043;-83
2023/08/15 09:50:12;;;;;;;3.10;1.50;;;;;;;28.40;100.00;100730.22;5053087;28;20041;-82
2023/08/15 09:52:41;;;;;;;2.92;1.33;;;;;;;28.68;100.00;100735.34;5065892;28;20045;-83
2023/08/15 09:55:12;;;;;;;2.33;1.50;;;;;;;28.89;100.00;100748.63;5065079;28;20042;-82
2023/08/15 09:57:39;;;;;;;4.43;1.35;;;;;;;28.10;100.00;100744.13;5052194;28;20083;-83
2023/08/15 10:00:17;;;;;;;3.85;1.50;;;;;;;28.55;100.00;100735.22;5065162;28;20365;-83
2023/08/15 10:02:58;;;;;;;3.60;1.40;;;;;;;28.04;100.00;100737.88;5068751;28;20032;-80
2023/08/15 10:05:30;;;;;;;3.90;1.42;;;;;;;28.30;100.00;100738.97;5067685;28;20041;-83
2023/08/15 10:07:58;;;;;;;2.55;1.50;;;;;;;28.63;100.00;100735.53;5067226;28;20036;-83
2023/08/15 10:10:26;;;;;;;3.53;1.70;;;;;;;29.15;100.00;100728.78;5061068;28;20037;-82
2023/08/15 10:12:53;;;;;;;4.07;1.48;;;;;;;29.79;100.00;100740.81;5045678;28;20456;-83
2023/08/15 10:15:22;;;;;;;5.13;1.80;;;;;;;29.64;100.00;100747.91;5038794;28;20598;-81
2023/08/15 10:17:51;;;;;;;3.78;1.67;;;;;;;30.50;100.00;100754.09;5063047;28;20029;-82
2023/08/15 10:20:21;;;;;;;3.53;1.40;;;;;;;31.60;100.00;100759.97;5060031;28;20095;-83
2023/08/15 10:22:52;;;;;;;3.17;1.60;;;;;;;31.68;99.47;100761.81;5067038;28;20040;-83
2023/08/15 10:25:40;;;;;;;3.42;1.70;;;;;;;31.56;100.00;100767.47;5035666;28;20044;-84
2023/08/15 10:28:11;;;;;;;2.67;1.50;;;;;;;33.04;86.25;100766.94;5046071;28;20045;-84
2023/08/15 10:30:46;;;;;;;5.05;1.80;;;;;;;32.51;92.40;100770.91;5053223;28;20128;-84
2023/08/15 10:33:16;;;;;;;5.30;1.77;;;;;;;33.00;87.18;100770.47;5049557;28;20112;-82
2023/08/15 10:36:04;;;;;;;3.42;1.63;;;;;;;32.71;85.76;100777.44;5069265;28;20036;-84
2023/08/15 10:38:39;;;;;;;4.13;1.73;;;;;;;32.80;83.21;100780.88;5062250;28;20078;-82
2023/08/15 10:41:07;;;;;;;2.95;1.50;;;;;;;33.56;80.23;100784.63;5046188;28;20404;-84
2023/08/15 10:43:34;;;;;;;3.60;2.05;;;;;;;33.17;82.28;100795.88;5061768;28;20551;-82
2023/08/15 10:46:04;;;;;;;3.85;1.88;;;;;;;33.51;76.10;100790.59;5051137;28;20068;-85
2023/08/15 10:48:40;;;;;;;3.22;1.63;;;;;;;33.32;82.02;100791.38;5061336;28;20124;-83
2023/08/15 10:51:19;;;;;;;4.07;1.90;;;;;;;33.82;75.18;100785.97;5060905;28;20028;-85
2023/08/15 10:53:56;;;;;;;4.10;1.88;;;;;;;33.86;73.64;100778.34;5069389;28;20032;-82
2023/08/15 10:56:24;;;;;;;4.03;1.88;;;;;;;34.03;75.40;100774.25;5069027;28;20035;-81
2023/08/15 10:58:51;;;;;;;3.53;1.83;;;;;;;34.26;72.43;100782.78;5041591;28;20511;-82
2023/08/15 11:01:18;;;;;;;3.30;1.90;;;;;;;34.73;63.30;100785.59;5056493;28;20058;-83
2023/08/15 11:03:47;;;;;;;3.42;2.08;;;;;;;33.72;73.38;100787.38;5059532;28;20056;-82
2023/08/15 11:06:14;;;;;;;3.85;2.25;;;;;;;33.57;76.24;100794.75;5071900;28;20396;-83
2023/08/15 11:08:48;;;;;;;4.00;2.10;;;;;;;33.96;71.03;100794.75;5052817;28;20041;-81
2023/08/15 11:11:14;;;;;;;2.85;2.00;;;;;;;35.39;66.66;100808.03;5070615;28;20051;-82
2023/08/15 11:13:43;;;;;;;3.22;2.10;;;;;;;35.97;61.94;100807.97;5066913;28;20041;-82
2023/08/15 11:16:10;;;;;;;4.25;1.90;;;;;;;36.52;60.54;100815.84;5070446;28;20036;-82